sensor_id;sensor_type;location;lat;lon;timestamp;pressure;altitude;pressure_sealevel;temperature;humidity
23166;BME280;11751;42.700;24.170;2024-02-14T00:00:44;93526.06;;;5.35;100.00
23166;BME280;11751;42.700;24.170;2024-02-14T00:03:09;93536.81;;;5.51;100.00
23166;BME280;11751;42.700;24.170;2024-02-14T00:05:35;93529.19;;;5.31;100.00
23166;BME280;11751;42.700;24.170;2024-02-14T00:08:01;93535.34;;;5.50;100.00
23166;BME280;11751;42.700;24.170;2024-02-14T00:10:28;93531.66;;;5.55;100.00
23166;BME280;11751;42.700;24.170;2024-02-14T00:12:54;93529.59;;;5.35;100.00
23166;BME280;11751;42.700;24.170;2024-02-14T00:15:19;93541.94;;;5.60;100.00
23166;BME280;11751;42.700;24.170;2024-02-14T00:17:44;93545.88;;;5.65;100.00
23166;BME280;11751;42.700;24.170;2024-02-14T00:20:10;93550.88;;;5.79;100.00
23166;BME280;11751;42.700;24.170;2024-02-14T00:22:38;93546.81;;;5.80;100.00
23166;BME280;11751;42.700;24.170;2024-02-14T00:25:04;93555.88;;;5.81;100.00
23166;BME280;11751;42.700;24.170;2024-02-14T00:27:29;93553.84;;;5.81;100.00
23166;BME280;11751;42.700;24.170;2024-02-14T00:29:55;93562.59;;;5.85;100.00
23166;BME280;11751;42.700;24.170;2024-02-14T00:32:21;93552.63;;;5.90;100.00
23166;BME280;11751;42.700;24.170;2024-02-14T00:34:47;93559.41;;;5.81;100.00
23166;BME280;11751;42.700;24.170;2024-02-14T00:37:12;93554.94;;;5.78;100.00
23166;BME280;11751;42.700;24.170;2024-02-14T00:39:38;93557.47;;;5.76;100.00
23166;BME280;11751;42.700;24.170;2024-02-14T00:42:04;93552.69;;;5.77;100.00
23166;BME280;11751;42.700;24.170;2024-02-14T00:44:29;93537.81;;;5.74;100.00
23166;BME280;11751;42.700;24.170;2024-02-14T00:46:58;93537.47;;;5.44;100.00
23166;BME280;11751;42.700;24.170;2024-02-14T00:49:25;93541.34;;;5.41;100.00
23166;BME280;11751;42.700;24.170;2024-02-14T00:51:51;93551.09;;;5.55;100.00
23166;BME280;11751;42.700;24.170;2024-02-14T00:54:16;93546.25;;;5.69;100.00
23166;BME280;11751;42.700;24.170;2024-02-14T00:56:41;93544.59;;;5.66;100.00
23166;BME280;11751;42.700;24.170;2024-02-14T00:59:07;93536.81;;;5.51;100.00
23166;BME280;11751;42.700;24.170;2024-02-14T01:01:33;93536.41;;;5.47;100.00
23166;BME280;11751;42.700;24.170;2024-02-14T01:03:58;93546.53;;;5.58;100.00
23166;BME280;11751;42.700;24.170;2024-02-14T01:06:24;93535.97;;;5.43;100.00
23166;BME280;11751;42.700;24.170;2024-02-14T01:08:50;93546.22;;;5.48;100.00
23166;BME280;11751;42.700;24.170;2024-02-14T01:11:15;93556.75;;;5.63;100.00
23166;BME280;11751;42.700;24.170;2024-02-14T01:13:41;93547.47;;;5.60;100.00
23166;BME280;11751;42.700;24.170;2024-02-14T01:16:06;93541.88;;;5.73;100.00
23166;BME280;11751;42.700;24.170;2024-02-14T01:18:33;93544.84;;;5.75;100.00
23166;BME280;11751;42.700;24.170;2024-02-14T01:20:58;93550.88;;;5.79;100.00
23166;BME280;11751;42.700;24.170;2024-02-14T01:23:26;93545.19;;;5.72;99.71
23166;BME280;11751;42.700;24.170;2024-02-14T01:25:52;93541.47;;;5.69;99.15
23166;BME280;11751;42.700;24.170;2024-02-14T01:28:19;93543.81;;;5.78;94.40
23166;BME280;11751;42.700;24.170;2024-02-14T01:30:45;93550.53;;;5.83;96.66
23166;BME280;11751;42.700;24.170;2024-02-14T01:33:10;93548.09;;;5.79;96.56
23166;BME280;11751;42.700;24.170;2024-02-14T01:35:36;93550.88;;;5.79;96.42
23166;BME280;11751;42.700;24.170;2024-02-14T01:38:01;93548.09;;;5.79;97.08
23166;BME280;11751;42.700;24.170;2024-02-14T01:40:28;93548.31;;;5.81;95.73
23166;BME280;11751;42.700;24.170;2024-02-14T01:42:54;93538.69;;;5.69;96.96
23166;BME280;11751;42.700;24.170;2024-02-14T01:45:21;93551.69;;;5.74;97.38
23166;BME280;11751;42.700;24.170;2024-02-14T01:47:47;93544.25;;;5.69;96.92
23166;BME280;11751;42.700;24.170;2024-02-14T01:50:13;93544.78;;;5.68;95.89
23166;BME280;11751;42.700;24.170;2024-02-14T01:52:39;93549.59;;;5.67;95.25
23166;BME280;11751;42.700;24.170;2024-02-14T01:55:07;93561.09;;;5.84;96.36
23166;BME280;11751;42.700;24.170;2024-02-14T01:57:33;93560.44;;;5.91;98.71
23166;BME280;11751;42.700;24.170;2024-02-14T02:00:00;93555.84;;;5.93;98.95
23166;BME280;11751;42.700;24.170;2024-02-14T02:02:33;93560.25;;;5.76;99.67
23166;BME280;11751;42.700;24.170;2024-02-14T02:05:01;93560.25;;;5.89;98.40
23166;BME280;11751;42.700;24.170;2024-02-14T02:07:27;93559.81;;;5.85;99.03
23166;BME280;11751;42.700;24.170;2024-02-14T02:09:52;93556.19;;;5.90;100.00
23166;BME280;11751;42.700;24.170;2024-02-14T02:12:18;93558.31;;;5.84;99.79
23166;BME280;11751;42.700;24.170;2024-02-14T02:14:43;93565.03;;;5.89;98.83
23166;BME280;11751;42.700;24.170;2024-02-14T02:17:09;93564.75;;;5.79;98.37
23166;BME280;11751;42.700;24.170;2024-02-14T02:19:36;93565.38;;;5.85;98.51
23166;BME280;11751;42.700;24.170;2024-02-14T02:22:02;93566.19;;;5.93;98.51
23166;BME280;11751;42.700;24.170;2024-02-14T02:24:27;93580.72;;;5.99;99.02
23166;BME280;11751;42.700;24.170;2024-02-14T02:26:52;93574.59;;;5.80;98.95
23166;BME280;11751;42.700;24.170;2024-02-14T02:29:18;93573.84;;;5.67;99.23
23166;BME280;11751;42.700;24.170;2024-02-14T02:31:45;93583.97;;;5.64;97.20
23166;BME280;11751;42.700;24.170;2024-02-14T02:34:11;93581.50;;;5.74;98.07
23166;BME280;11751;42.700;24.170;2024-02-14T02:36:36;93589.72;;;5.92;98.12
23166;BME280;11751;42.700;24.170;2024-02-14T02:39:03;93591.66;;;5.84;97.80
23166;BME280;11751;42.700;24.170;2024-02-14T02:41:30;93593.81;;;5.65;96.68
23166;BME280;11751;42.700;24.170;2024-02-14T02:43:57;93593.69;;;5.84;97.03
23166;BME280;11751;42.700;24.170;2024-02-14T02:46:22;93599.13;;;5.89;98.06
23166;BME280;11751;42.700;24.170;2024-02-14T02:48:48;93594.47;;;5.71;97.52
23166;BME280;11751;42.700;24.170;2024-02-14T02:51:16;93605.47;;;5.64;98.17
23166;BME280;11751;42.700;24.170;2024-02-14T02:53:42;93611.34;;;5.60;98.23
23166;BME280;11751;42.700;24.170;2024-02-14T02:56:08;93610.06;;;5.61;96.15
23166;BME280;11751;42.700;24.170;2024-02-14T02:58:33;93602.56;;;5.69;96.52
23166;BME280;11751;42.700;24.170;2024-02-14T03:00:59;93609.28;;;5.74;96.94
23166;BME280;11751;42.700;24.170;2024-02-14T03:03:24;93609.53;;;5.63;98.06
23166;BME280;11751;42.700;24.170;2024-02-14T03:05:52;93606.84;;;5.57;98.31
23166;BME280;11751;42.700;24.170;2024-02-14T03:08:19;93615.28;;;5.65;97.42
23166;BME280;11751;42.700;24.170;2024-02-14T03:10:44;93612.50;;;5.65;98.30
23166;BME280;11751;42.700;24.170;2024-02-14T03:13:11;93605.75;;;5.73;97.35
23166;BME280;11751;42.700;24.170;2024-02-14T03:15:39;93612.84;;;5.61;95.46
23166;BME280;11751;42.700;24.170;2024-02-14T03:18:04;93608.34;;;5.71;96.48
23166;BME280;11751;42.700;24.170;2024-02-14T03:20:35;93623.50;;;5.70;96.89
23166;BME280;11751;42.700;24.170;2024-02-14T03:23:01;93616.59;;;5.51;95.35
23166;BME280;11751;42.700;24.170;2024-02-14T03:25:28;93625.75;;;5.72;94.93
23166;BME280;11751;42.700;24.170;2024-02-14T03:27:54;93616.13;;;5.60;96.23
23166;BME280;11751;42.700;24.170;2024-02-14T03:30:20;93643.19;;;5.59;96.40
23166;BME280;11751;42.700;24.170;2024-02-14T03:32:46;93639.13;;;5.34;95.77
23166;BME280;11751;42.700;24.170;2024-02-14T03:35:13;93645.94;;;5.59;94.75
23166;BME280;11751;42.700;24.170;2024-02-14T03:37:40;93637.06;;;5.74;94.04
23166;BME280;11751;42.700;24.170;2024-02-14T03:40:06;93642.53;;;5.92;94.83
23166;BME280;11751;42.700;24.170;2024-02-14T03:42:32;93642.75;;;5.81;95.97
23166;BME280;11751;42.700;24.170;2024-02-14T03:44:58;93647.22;;;5.84;96.16
23166;BME280;11751;42.700;24.170;2024-02-14T03:47:31;93654.78;;;5.96;96.17
23166;BME280;11751;42.700;24.170;2024-02-14T03:50:00;93633.34;;;5.71;96.04
23166;BME280;11751;42.700;24.170;2024-02-14T03:52:27;93650.22;;;5.86;97.26
23166;BME280;11751;42.700;24.170;2024-02-14T03:54:53;93648.59;;;5.78;97.03
23166;BME280;11751;42.700;24.170;2024-02-14T03:57:18;93652.66;;;5.90;96.18
23166;BME280;11751;42.700;24.170;2024-02-14T03:59:44;93668.81;;;5.91;94.06
23166;BME280;11751;42.700;24.170;2024-02-14T04:02:10;93668.69;;;5.96;95.42
23166;BME280;11751;42.700;24.170;2024-02-14T04:04:41;93667.75;;;5.81;91.89
23166;BME280;11751;42.700;24.170;2024-02-14T04:07:06;93680.56;;;5.84;89.85
23166;BME280;11751;42.700;24.170;2024-02-14T04:09:34;93683.88;;;5.83;89.94
23166;BME280;11751;42.700;24.170;2024-02-14T04:11:59;93681.72;;;5.89;90.03
23166;BME280;11751;42.700;24.170;2024-02-14T04:14:25;93686.97;;;5.92;90.26
23166;BME280;11751;42.700;24.170;2024-02-14T04:16:50;93678.75;;;5.87;94.02
23166;BME280;11751;42.700;24.170;2024-02-14T04:19:16;93686.94;;;5.66;97.13
23166;BME280;11751;42.700;24.170;2024-02-14T04:21:43;93691.34;;;5.75;97.09
23166;BME280;11751;42.700;24.170;2024-02-14T04:24:08;93688.56;;;5.49;95.39
23166;BME280;11751;42.700;24.170;2024-02-14T04:26:34;93685.88;;;5.43;93.56
23166;BME280;11751;42.700;24.170;2024-02-14T04:29:00;93688.56;;;5.49;90.50
23166;BME280;11751;42.700;24.170;2024-02-14T04:31:25;93686.53;;;5.36;92.29
23166;BME280;11751;42.700;24.170;2024-02-14T04:33:52;93678.75;;;5.35;91.95
23166;BME280;11751;42.700;24.170;2024-02-14T04:36:19;93695.69;;;5.18;94.86
23166;BME280;11751;42.700;24.170;2024-02-14T04:38:46;93688.44;;;5.15;94.54
23166;BME280;11751;42.700;24.170;2024-02-14T04:41:12;93692.06;;;5.10;92.82
23166;BME280;11751;42.700;24.170;2024-02-14T04:43:38;93714.81;;;5.22;93.49
23166;BME280;11751;42.700;24.170;2024-02-14T04:46:04;93701.88;;;5.24;94.71
23166;BME280;11751;42.700;24.170;2024-02-14T04:48:32;93689.50;;;5.25;93.21
23166;BME280;11751;42.700;24.170;2024-02-14T04:50:58;93692.81;;;5.11;93.99
23166;BME280;11751;42.700;24.170;2024-02-14T04:53:23;93709.56;;;5.18;94.02
23166;BME280;11751;42.700;24.170;2024-02-14T04:55:49;93715.31;;;5.07;94.49
23166;BME280;11751;42.700;24.170;2024-02-14T04:58:14;93706.47;;;5.09;95.36
23166;BME280;11751;42.700;24.170;2024-02-14T05:00:40;93735.47;;;4.95;94.20
23166;BME280;11751;42.700;24.170;2024-02-14T05:03:05;93732.09;;;5.15;92.73
23166;BME280;11751;42.700;24.170;2024-02-14T05:05:31;93717.50;;;5.27;93.95
23166;BME280;11751;42.700;24.170;2024-02-14T05:07:58;93730.53;;;5.32;93.90
23166;BME280;11751;42.700;24.170;2024-02-14T05:10:24;93732.22;;;5.22;95.16
23166;BME280;11751;42.700;24.170;2024-02-14T05:12:49;93748.25;;;5.29;98.35
23166;BME280;11751;42.700;24.170;2024-02-14T05:15:15;93756.13;;;5.25;99.49
23166;BME280;11751;42.700;24.170;2024-02-14T05:17:44;93742.69;;;5.29;99.55
23166;BME280;11751;42.700;24.170;2024-02-14T05:20:10;93766.16;;;5.28;100.00
23166;BME280;11751;42.700;24.170;2024-02-14T05:22:38;93765.00;;;5.24;100.00
23166;BME280;11751;42.700;24.170;2024-02-14T05:25:06;93762.16;;;5.11;100.00
23166;BME280;11751;42.700;24.170;2024-02-14T05:27:35;93771.06;;;5.22;100.00
23166;BME280;11751;42.700;24.170;2024-02-14T05:30:02;93777.78;;;5.14;100.00
23166;BME280;11751;42.700;24.170;2024-02-14T05:32:31;93784.50;;;5.18;100.00
23166;BME280;11751;42.700;24.170;2024-02-14T05:34:57;93790.53;;;5.35;100.00
23166;BME280;11751;42.700;24.170;2024-02-14T05:37:22;93795.22;;;5.27;100.00
23166;BME280;11751;42.700;24.170;2024-02-14T05:39:47;93790.88;;;5.01;100.00
23166;BME280;11751;42.700;24.170;2024-02-14T05:42:13;93791.50;;;5.06;100.00
23166;BME280;11751;42.700;24.170;2024-02-14T05:44:38;93785.25;;;4.88;100.00
23166;BME280;11751;42.700;24.170;2024-02-14T05:47:05;93793.78;;;5.08;100.00
23166;BME280;11751;42.700;24.170;2024-02-14T05:49:30;93799.88;;;5.19;100.00
23166;BME280;11751;42.700;24.170;2024-02-14T05:51:56;93814.00;;;5.21;100.00
23166;BME280;11751;42.700;24.170;2024-02-14T05:54:21;93810.53;;;5.15;100.00
23166;BME280;11751;42.700;24.170;2024-02-14T05:56:47;93823.03;;;5.09;100.00
23166;BME280;11751;42.700;24.170;2024-02-14T05:59:12;93824.63;;;5.17;100.00
23166;BME280;11751;42.700;24.170;2024-02-14T06:01:37;93818.84;;;5.03;100.00
23166;BME280;11751;42.700;24.170;2024-02-14T06:04:03;93829.75;;;5.13;100.00
23166;BME280;11751;42.700;24.170;2024-02-14T06:06:29;93837.19;;;5.05;100.00
23166;BME280;11751;42.700;24.170;2024-02-14T06:08:54;93845.47;;;5.24;100.00
23166;BME280;11751;42.700;24.170;2024-02-14T06:11:20;93841.75;;;5.21;100.00
23166;BME280;11751;42.700;24.170;2024-02-14T06:13:49;93847.31;;;5.34;100.00
23166;BME280;11751;42.700;24.170;2024-02-14T06:16:14;93852.28;;;5.41;100.00
23166;BME280;11751;42.700;24.170;2024-02-14T06:18:40;93852.91;;;5.47;100.00
23166;BME280;11751;42.700;24.170;2024-02-14T06:21:06;93852.34;;;5.36;100.00
23166;BME280;11751;42.700;24.170;2024-02-14T06:23:31;93861.03;;;5.45;100.00
23166;BME280;11751;42.700;24.170;2024-02-14T06:25:58;93862.53;;;5.46;100.00
23166;BME280;11751;42.700;24.170;2024-02-14T06:28:23;93871.44;;;5.71;100.00
23166;BME280;11751;42.700;24.170;2024-02-14T06:30:49;93867.25;;;5.64;100.00
23166;BME280;11751;42.700;24.170;2024-02-14T06:33:14;93863.22;;;5.65;100.00
23166;BME280;11751;42.700;24.170;2024-02-14T06:35:39;93871.91;;;5.75;100.00
23166;BME280;11751;42.700;24.170;2024-02-14T06:38:05;93876.22;;;5.89;100.00
23166;BME280;11751;42.700;24.170;2024-02-14T06:40:32;93880.84;;;5.99;100.00
23166;BME280;11751;42.700;24.170;2024-02-14T06:42:57;93876.78;;;6.00;100.00
23166;BME280;11751;42.700;24.170;2024-02-14T06:45:25;93885.75;;;6.06;100.00
23166;BME280;11751;42.700;24.170;2024-02-14T06:47:51;93883.38;;;5.97;100.00
23166;BME280;11751;42.700;24.170;2024-02-14T06:50:16;93892.38;;;5.90;100.00
23166;BME280;11751;42.700;24.170;2024-02-14T06:52:41;93892.69;;;5.99;100.00
23166;BME280;11751;42.700;24.170;2024-02-14T06:55:07;93893.03;;;6.09;100.00
23166;BME280;11751;42.700;24.170;2024-02-14T06:57:33;93905.44;;;6.08;100.00
23166;BME280;11751;42.700;24.170;2024-02-14T06:59:58;93904.97;;;6.04;100.00
23166;BME280;11751;42.700;24.170;2024-02-14T07:02:24;93905.84;;;5.99;100.00
23166;BME280;11751;42.700;24.170;2024-02-14T07:04:53;93903.28;;;6.01;100.00
23166;BME280;11751;42.700;24.170;2024-02-14T07:07:19;93908.00;;;6.06;100.00
23166;BME280;11751;42.700;24.170;2024-02-14T07:09:44;93920.38;;;5.92;100.00
23166;BME280;11751;42.700;24.170;2024-02-14T07:12:10;93917.47;;;5.97;100.00
23166;BME280;11751;42.700;24.170;2024-02-14T07:14:35;93921.44;;;5.89;100.00
23166;BME280;11751;42.700;24.170;2024-02-14T07:17:01;93929.47;;;5.74;100.00
23166;BME280;11751;42.700;24.170;2024-02-14T07:19:27;93929.75;;;5.89;100.00
23166;BME280;11751;42.700;24.170;2024-02-14T07:21:53;93925.31;;;5.99;100.00
23166;BME280;11751;42.700;24.170;2024-02-14T07:24:18;93924.66;;;6.06;100.00
23166;BME280;11751;42.700;24.170;2024-02-14T07:26:43;93933.03;;;6.19;100.00
23166;BME280;11751;42.700;24.170;2024-02-14T07:29:10;93925.09;;;6.23;100.00
23166;BME280;11751;42.700;24.170;2024-02-14T07:31:35;93928.44;;;6.34;100.00
23166;BME280;11751;42.700;24.170;2024-02-14T07:34:01;93936.69;;;6.40;100.00
23166;BME280;11751;42.700;24.170;2024-02-14T07:36:31;93944.03;;;6.11;100.00
23166;BME280;11751;42.700;24.170;2024-02-14T07:38:56;93940.94;;;6.28;100.00
23166;BME280;11751;42.700;24.170;2024-02-14T07:41:22;93943.53;;;6.39;99.96
23166;BME280;11751;42.700;24.170;2024-02-14T07:43:47;93943.09;;;6.48;98.73
23166;BME280;11751;42.700;24.170;2024-02-14T07:46:19;93946.09;;;6.50;98.73
23166;BME280;11751;42.700;24.170;2024-02-14T07:48:45;93942.03;;;6.51;97.92
23166;BME280;11751;42.700;24.170;2024-02-14T07:51:12;93951.25;;;6.59;97.33
23166;BME280;11751;42.700;24.170;2024-02-14T07:53:37;93944.59;;;6.62;95.91
23166;BME280;11751;42.700;24.170;2024-02-14T07:56:03;93943.09;;;6.74;96.07
23166;BME280;11751;42.700;24.170;2024-02-14T07:58:28;93949.97;;;6.60;94.40
23166;BME280;11751;42.700;24.170;2024-02-14T08:00:53;93944.16;;;6.71;93.61
23166;BME280;11751;42.700;24.170;2024-02-14T08:03:19;93945.66;;;6.72;93.32
23166;BME280;11751;42.700;24.170;2024-02-14T08:05:44;93951.47;;;6.61;91.98
23166;BME280;11751;42.700;24.170;2024-02-14T08:08:10;93952.94;;;6.62;92.41
23166;BME280;11751;42.700;24.170;2024-02-14T08:10:35;93957.00;;;6.48;89.49
23166;BME280;11751;42.700;24.170;2024-02-14T08:13:00;93956.50;;;6.05;93.10
23166;BME280;11751;42.700;24.170;2024-02-14T08:15:26;93964.88;;;6.18;92.07
23166;BME280;11751;42.700;24.170;2024-02-14T08:17:51;93959.00;;;5.77;91.76
23166;BME280;11751;42.700;24.170;2024-02-14T08:20:20;93967.41;;;6.03;92.80
23166;BME280;11751;42.700;24.170;2024-02-14T08:22:46;93958.16;;;6.13;91.39
23166;BME280;11751;42.700;24.170;2024-02-14T08:25:11;93960.78;;;6.06;90.90
23166;BME280;11751;42.700;24.170;2024-02-14T08:27:37;93965.69;;;6.00;90.72
23166;BME280;11751;42.700;24.170;2024-02-14T08:30:02;93971.69;;;6.04;91.02
23166;BME280;11751;42.700;24.170;2024-02-14T08:32:30;93964.63;;;6.03;90.25
23166;BME280;11751;42.700;24.170;2024-02-14T08:34:55;93968.50;;;6.13;92.06
23166;BME280;11751;42.700;24.170;2024-02-14T08:37:21;93969.31;;;5.95;90.72
23166;BME280;11751;42.700;24.170;2024-02-14T08:39:46;93959.06;;;6.03;89.42
23166;BME280;11751;42.700;24.170;2024-02-14T08:42:12;93967.63;;;5.92;88.84
23166;BME280;11751;42.700;24.170;2024-02-14T08:44:38;93963.03;;;5.76;90.21
23166;BME280;11751;42.700;24.170;2024-02-14T08:47:03;93967.22;;;6.01;91.14
23166;BME280;11751;42.700;24.170;2024-02-14T08:49:29;93969.25;;;6.13;86.95
23166;BME280;11751;42.700;24.170;2024-02-14T08:51:54;93968.31;;;6.24;89.21
23166;BME280;11751;42.700;24.170;2024-02-14T08:54:20;93967.22;;;6.14;84.75
23166;BME280;11751;42.700;24.170;2024-02-14T08:56:46;93972.72;;;5.88;85.70
23166;BME280;11751;42.700;24.170;2024-02-14T08:59:12;93968.59;;;5.76;86.52
23166;BME280;11751;42.700;24.170;2024-02-14T09:01:38;93958.84;;;5.70;87.73
23166;BME280;11751;42.700;24.170;2024-02-14T09:04:03;93970.25;;;5.66;87.31
23166;BME280;11751;42.700;24.170;2024-02-14T09:06:28;93959.75;;;5.59;87.55
23166;BME280;11751;42.700;24.170;2024-02-14T09:08:54;93957.81;;;5.54;87.15
23166;BME280;11751;42.700;24.170;2024-02-14T09:11:20;93955.41;;;5.64;89.09
23166;BME280;11751;42.700;24.170;2024-02-14T09:13:46;93965.06;;;5.76;87.48
23166;BME280;11751;42.700;24.170;2024-02-14T09:16:13;93958.53;;;5.73;88.63
23166;BME280;11751;42.700;24.170;2024-02-14T09:18:40;93962.50;;;5.78;88.14
23166;BME280;11751;42.700;24.170;2024-02-14T09:21:06;93959.84;;;5.54;88.35
23166;BME280;11751;42.700;24.170;2024-02-14T09:23:31;93957.22;;;5.61;86.90
23166;BME280;11751;42.700;24.170;2024-02-14T09:25:58;93953.38;;;5.64;87.94
23166;BME280;11751;42.700;24.170;2024-02-14T09:28:23;93966.59;;;5.77;85.75
23166;BME280;11751;42.700;24.170;2024-02-14T09:30:50;93953.28;;;5.88;86.71
23166;BME280;11751;42.700;24.170;2024-02-14T09:33:15;93954.81;;;6.15;88.02
23166;BME280;11751;42.700;24.170;2024-02-14T09:35:41;93967.88;;;6.20;86.25
23166;BME280;11751;42.700;24.170;2024-02-14T09:38:12;93961.25;;;6.23;83.76
23166;BME280;11751;42.700;24.170;2024-02-14T09:40:41;93970.75;;;6.14;82.83
23166;BME280;11751;42.700;24.170;2024-02-14T09:43:16;93966.19;;;6.30;83.48
23166;BME280;11751;42.700;24.170;2024-02-14T09:45:50;93962.56;;;6.48;83.93
23166;BME280;11751;42.700;24.170;2024-02-14T09:48:16;93964.72;;;6.55;83.34
23166;BME280;11751;42.700;24.170;2024-02-14T09:50:44;93970.78;;;6.40;81.04
23166;BME280;11751;42.700;24.170;2024-02-14T09:53:09;93964.16;;;6.56;82.02
23166;BME280;11751;42.700;24.170;2024-02-14T09:55:36;93942.56;;;6.62;83.75
23166;BME280;11751;42.700;24.170;2024-02-14T09:58:05;93970.06;;;6.53;82.22
23166;BME280;11751;42.700;24.170;2024-02-14T10:00:32;93962.34;;;6.46;82.00
23166;BME280;11751;42.700;24.170;2024-02-14T10:02:58;93958.72;;;6.38;83.87
23166;BME280;11751;42.700;24.170;2024-02-14T10:05:24;93961.72;;;6.66;83.05
23166;BME280;11751;42.700;24.170;2024-02-14T10:07:50;93974.78;;;6.58;80.79
23166;BME280;11751;42.700;24.170;2024-02-14T10:10:16;93963.78;;;6.65;81.68
23166;BME280;11751;42.700;24.170;2024-02-14T10:12:42;93957.75;;;6.61;81.43
23166;BME280;11751;42.700;24.170;2024-02-14T10:15:08;93959.16;;;6.55;82.47
23166;BME280;11751;42.700;24.170;2024-02-14T10:17:34;93974.75;;;6.71;82.21
23166;BME280;11751;42.700;24.170;2024-02-14T10:20:01;93970.28;;;6.55;81.74
23166;BME280;11751;42.700;24.170;2024-02-14T10:22:37;93970.47;;;6.44;80.52
23166;BME280;11751;42.700;24.170;2024-02-14T10:25:04;93971.56;;;6.41;81.89
23166;BME280;11751;42.700;24.170;2024-02-14T10:27:37;93962.22;;;6.38;80.48
23166;BME280;11751;42.700;24.170;2024-02-14T10:30:05;93957.22;;;6.50;81.75
23166;BME280;11751;42.700;24.170;2024-02-14T10:32:34;93969.63;;;6.62;81.27
23166;BME280;11751;42.700;24.170;2024-02-14T10:35:00;93958.63;;;6.95;79.66
23166;BME280;11751;42.700;24.170;2024-02-14T10:37:28;93950.13;;;7.00;80.25
23166;BME280;11751;42.700;24.170;2024-02-14T10:39:55;93949.28;;;6.92;77.14
23166;BME280;11751;42.700;24.170;2024-02-14T10:42:21;93954.00;;;6.97;77.70
23166;BME280;11751;42.700;24.170;2024-02-14T10:44:47;93953.47;;;6.99;77.75
23166;BME280;11751;42.700;24.170;2024-02-14T10:47:19;93966.41;;;6.83;79.08
23166;BME280;11751;42.700;24.170;2024-02-14T10:49:45;93958.06;;;6.96;78.15
23166;BME280;11751;42.700;24.170;2024-02-14T10:52:12;93962.34;;;6.84;77.52
23166;BME280;11751;42.700;24.170;2024-02-14T10:54:40;93964.25;;;7.02;78.71
23166;BME280;11751;42.700;24.170;2024-02-14T10:57:06;93969.81;;;7.28;79.47
23166;BME280;11751;42.700;24.170;2024-02-14T10:59:39;93972.78;;;7.30;76.37
23166;BME280;11751;42.700;24.170;2024-02-14T11:02:07;93961.69;;;7.04;77.24
23166;BME280;11751;42.700;24.170;2024-02-14T11:04:33;93963.84;;;6.98;78.30
23166;BME280;11751;42.700;24.170;2024-02-14T11:06:58;93955.06;;;7.07;77.03
23166;BME280;11751;42.700;24.170;2024-02-14T11:09:36;93960.41;;;7.18;78.57
23166;BME280;11751;42.700;24.170;2024-02-14T11:12:02;93969.53;;;7.39;79.66
23166;BME280;11751;42.700;24.170;2024-02-14T11:14:32;93960.66;;;7.41;76.06
23166;BME280;11751;42.700;24.170;2024-02-14T11:17:02;93951.00;;;7.08;76.95
23166;BME280;11751;42.700;24.170;2024-02-14T11:19:33;93963.34;;;7.33;78.75
23166;BME280;11751;42.700;24.170;2024-02-14T11:22:10;93963.19;;;7.18;77.21
23166;BME280;11751;42.700;24.170;2024-02-14T11:24:37;93952.66;;;7.24;78.88
23166;BME280;11751;42.700;24.170;2024-02-14T11:27:02;93958.16;;;7.50;78.42
23166;BME280;11751;42.700;24.170;2024-02-14T11:29:31;93956.84;;;7.64;77.00
23166;BME280;11751;42.700;24.170;2024-02-14T11:32:00;93950.25;;;7.41;76.49
23166;BME280;11751;42.700;24.170;2024-02-14T11:34:26;93950.00;;;7.52;74.42
23166;BME280;11751;42.700;24.170;2024-02-14T11:36:52;93958.09;;;7.43;76.32
23166;BME280;11751;42.700;24.170;2024-02-14T11:39:17;93965.56;;;7.48;75.67
23166;BME280;11751;42.700;24.170;2024-02-14T11:41:43;93957.91;;;7.61;77.26
23166;BME280;11751;42.700;24.170;2024-02-14T11:44:08;93960.22;;;7.70;75.69
23166;BME280;11751;42.700;24.170;2024-02-14T11:46:35;93958.81;;;7.43;76.21
23166;BME280;11751;42.700;24.170;2024-02-14T11:49:02;93953.69;;;7.47;77.43
23166;BME280;11751;42.700;24.170;2024-02-14T11:51:30;93961.25;;;7.26;78.60
23166;BME280;11751;42.700;24.170;2024-02-14T11:53:59;93963.94;;;7.52;77.43
23166;BME280;11751;42.700;24.170;2024-02-14T11:56:37;93962.44;;;7.51;77.12
23166;BME280;11751;42.700;24.170;2024-02-14T11:59:04;93965.31;;;7.12;77.80
23166;BME280;11751;42.700;24.170;2024-02-14T12:01:35;93965.53;;;7.14;79.83
23166;BME280;11751;42.700;24.170;2024-02-14T12:04:02;93965.06;;;7.36;78.51
23166;BME280;11751;42.700;24.170;2024-02-14T12:06:29;93969.50;;;7.06;79.75
23166;BME280;11751;42.700;24.170;2024-02-14T12:08:56;93970.66;;;7.10;80.06
23166;BME280;11751;42.700;24.170;2024-02-14T12:11:22;93978.50;;;6.99;79.45
23166;BME280;11751;42.700;24.170;2024-02-14T12:13:50;93977.13;;;6.92;79.41
23166;BME280;11751;42.700;24.170;2024-02-14T12:16:16;93979.94;;;6.79;79.95
23166;BME280;11751;42.700;24.170;2024-02-14T12:18:44;93982.38;;;6.83;80.07
23166;BME280;11751;42.700;24.170;2024-02-14T12:21:10;93975.00;;;6.98;79.68
23166;BME280;11751;42.700;24.170;2024-02-14T12:23:35;93984.19;;;6.93;78.12
23166;BME280;11751;42.700;24.170;2024-02-14T12:26:02;93991.47;;;6.96;78.81
23166;BME280;11751;42.700;24.170;2024-02-14T12:28:29;93990.41;;;6.86;78.51
23166;BME280;11751;42.700;24.170;2024-02-14T12:30:59;93990.19;;;6.97;79.45
23166;BME280;11751;42.700;24.170;2024-02-14T12:33:25;93957.03;;;6.61;78.51
23166;BME280;11751;42.700;24.170;2024-02-14T12:35:53;93987.63;;;6.99;78.03
23166;BME280;11751;42.700;24.170;2024-02-14T12:38:19;93989.13;;;6.87;79.30
23166;BME280;11751;42.700;24.170;2024-02-14T12:40:45;93995.75;;;6.72;80.00
23166;BME280;11751;42.700;24.170;2024-02-14T12:43:12;93996.28;;;6.44;81.16
23166;BME280;11751;42.700;24.170;2024-02-14T12:45:39;93998.06;;;6.29;81.28
23166;BME280;11751;42.700;24.170;2024-02-14T12:48:09;94000.44;;;6.38;82.16
23166;BME280;11751;42.700;24.170;2024-02-14T12:50:35;93994.91;;;6.19;82.75
23166;BME280;11751;42.700;24.170;2024-02-14T12:53:03;94002.06;;;6.02;83.94